createdAt,value
2018-05-12T00:02:08.686Z,3.23
2018-05-12T00:04:36.122Z,3.70
2018-05-12T00:07:03.803Z,3.43
2018-05-12T00:09:31.233Z,3.20
2018-05-12T00:11:58.697Z,3.40
2018-05-12T00:14:26.147Z,3.50
2018-05-12T00:16:53.590Z,3.60
2018-05-12T00:19:21.019Z,3.47
2018-05-12T00:21:48.472Z,3.53
2018-05-12T00:24:15.893Z,3.40
2018-05-12T00:26:43.437Z,3.53
2018-05-12T00:29:10.807Z,4.00
2018-05-12T00:31:38.277Z,3.63
2018-05-12T00:34:05.725Z,3.90
2018-05-12T00:36:33.177Z,3.07
2018-05-12T00:39:00.640Z,3.50
2018-05-12T00:41:28.076Z,3.87
2018-05-12T00:43:55.534Z,3.60
2018-05-12T00:46:22.969Z,3.47
2018-05-12T00:48:50.417Z,3.60
2018-05-12T00:51:18.622Z,3.60
2018-05-12T00:53:46.077Z,3.40
2018-05-12T00:56:13.545Z,3.60
2018-05-12T00:58:41.008Z,3.53
2018-05-12T01:01:08.436Z,3.63
2018-05-12T01:03:35.901Z,3.70
2018-05-12T01:06:03.328Z,3.70
2018-05-12T01:08:31.546Z,4.07
2018-05-12T01:10:58.994Z,3.40
2018-05-12T01:13:26.456Z,3.37
2018-05-12T01:15:53.908Z,4.03
2018-05-12T01:18:21.393Z,3.70
2018-05-12T01:20:48.853Z,3.60
2018-05-12T01:23:16.302Z,3.97
2018-05-12T01:25:43.794Z,3.40
2018-05-12T01:28:11.984Z,3.80
2018-05-12T01:30:39.426Z,3.77
2018-05-12T01:33:06.882Z,3.77
2018-05-12T01:35:35.125Z,3.70
2018-05-12T01:38:02.583Z,3.63
2018-05-12T01:40:30.058Z,3.77
2018-05-12T01:42:57.502Z,4.10
2018-05-12T01:45:24.968Z,4.00
2018-05-12T01:47:52.426Z,4.07
2018-05-12T01:50:19.886Z,4.00
2018-05-12T01:52:47.324Z,4.23
2018-05-12T01:55:14.781Z,4.13
2018-05-12T01:57:42.221Z,3.70
2018-05-12T02:00:09.681Z,3.80
2018-05-12T02:02:37.137Z,4.37
2018-05-12T02:05:04.588Z,4.60
2018-05-12T02:07:32.053Z,3.73
2018-05-12T02:09:59.491Z,3.90
2018-05-12T02:12:26.940Z,4.40
2018-05-12T02:14:54.381Z,4.30
2018-05-12T02:17:22.595Z,4.40
2018-05-12T02:19:50.050Z,4.87
2018-05-12T02:22:17.461Z,4.80
2018-05-12T02:24:44.917Z,5.53
2018-05-12T02:27:12.357Z,5.30
2018-05-12T02:29:39.821Z,4.70
2018-05-12T02:32:07.286Z,5.07
2018-05-12T02:34:35.492Z,5.20
2018-05-12T02:37:02.917Z,5.00
2018-05-12T02:39:30.380Z,4.53
2018-05-12T02:41:58.610Z,5.17
2018-05-12T02:44:26.059Z,5.77
2018-05-12T02:46:53.494Z,5.13
2018-05-12T02:49:20.941Z,5.37
2018-05-12T02:51:48.392Z,5.50
2018-05-12T02:54:15.826Z,5.70
2018-05-12T02:56:43.285Z,5.30
2018-05-12T02:59:10.718Z,5.73
2018-05-12T03:01:38.189Z,5.50
2018-05-12T03:04:05.635Z,5.47
2018-05-12T03:06:33.101Z,5.77
2018-05-12T03:09:00.537Z,6.23
2018-05-12T03:11:27.997Z,5.83
2018-05-12T03:13:56.185Z,6.13
2018-05-12T03:16:23.624Z,5.60
2018-05-12T03:18:51.052Z,6.50
2018-05-12T03:21:18.521Z,6.17
2018-05-12T03:23:45.990Z,6.07
2018-05-12T03:26:13.462Z,6.63
2018-05-12T03:28:40.904Z,6.40
2018-05-12T03:31:08.348Z,6.10
2018-05-12T03:33:36.579Z,6.17
2018-05-12T03:36:04.784Z,6.80
2018-05-12T03:38:32.225Z,6.43
2018-05-12T03:40:59.678Z,6.50
2018-05-12T03:43:27.116Z,6.20
2018-05-12T03:45:54.606Z,7.50
2018-05-12T03:48:22.038Z,7.30
2018-05-12T03:50:49.493Z,7.37
2018-05-12T03:53:16.954Z,6.83
2018-05-12T03:55:45.140Z,7.07
2018-05-12T03:58:12.661Z,7.77
2018-05-12T04:00:40.041Z,8.10
2018-05-12T04:03:07.515Z,7.27
2018-05-12T04:05:46.797Z,7.53
2018-05-12T04:08:26.065Z,8.13
2018-05-12T04:11:05.422Z,7.97
2018-05-12T04:13:33.709Z,8.30
2018-05-12T04:16:01.161Z,8.70
2018-05-12T04:18:28.614Z,8.20
2018-05-12T04:20:56.133Z,8.50
2018-05-12T04:23:23.548Z,8.50
2018-05-12T04:25:50.985Z,9.63
2018-05-12T04:28:18.418Z,8.20
2018-05-12T04:30:45.872Z,9.73
2018-05-12T04:33:13.321Z,9.20
2018-05-12T04:35:41.540Z,9.50
2018-05-12T04:38:08.992Z,9.43
2018-05-12T04:40:36.445Z,9.57
2018-05-12T04:43:03.896Z,10.30
2018-05-12T04:45:31.357Z,9.93
2018-05-12T04:47:58.817Z,10.50
2018-05-12T04:50:26.289Z,10.00
2018-05-12T04:52:53.745Z,10.47
2018-05-12T04:55:21.261Z,10.33
2018-05-12T04:57:48.645Z,10.90
2018-05-12T05:00:16.115Z,10.53
2018-05-12T05:02:43.553Z,11.10
2018-05-12T05:05:11.033Z,10.53
2018-05-12T05:07:38.476Z,10.30
2018-05-12T05:10:05.922Z,10.27
2018-05-12T05:12:33.382Z,10.87
2018-05-12T05:15:00.841Z,10.83
2018-05-12T05:17:28.286Z,11.10
2018-05-12T05:19:55.764Z,11.03
2018-05-12T05:22:23.213Z,11.57
2018-05-12T05:24:50.655Z,11.80
2018-05-12T05:27:18.119Z,11.87
2018-05-12T05:29:45.577Z,11.37
2018-05-12T05:32:13.041Z,12.33
2018-05-12T05:34:40.489Z,11.97
2018-05-12T05:37:07.949Z,12.00
2018-05-12T05:39:35.401Z,11.80
2018-05-12T05:42:02.869Z,11.67
2018-05-12T05:44:30.309Z,11.70
2018-05-12T05:46:57.756Z,12.43
2018-05-12T05:49:25.242Z,11.20
2018-05-12T05:51:52.690Z,12.73
2018-05-12T05:54:20.144Z,12.17
2018-05-12T05:56:47.606Z,10.90
2018-05-12T05:59:15.056Z,12.10
2018-05-12T06:01:42.529Z,12.63
2018-05-12T06:04:09.994Z,12.40
2018-05-12T06:06:37.452Z,12.20
2018-05-12T06:09:05.838Z,12.80
2018-05-12T06:11:33.297Z,12.53
2018-05-12T06:14:00.769Z,13.47
2018-05-12T06:16:28.204Z,12.23
2018-05-12T06:18:55.656Z,12.90
2018-05-12T06:21:23.111Z,12.60
2018-05-12T06:23:50.650Z,12.40
2018-05-12T06:26:18.084Z,12.40
2018-05-12T06:28:46.381Z,12.50
2018-05-12T06:31:13.825Z,12.10
2018-05-12T06:33:42.113Z,12.63
2018-05-12T06:36:10.141Z,13.13
2018-05-12T06:38:37.585Z,12.40
2018-05-12T06:41:05.045Z,13.13
2018-05-12T06:43:32.484Z,11.60
2018-05-12T06:45:59.945Z,11.67
2018-05-12T06:48:27.394Z,11.80
2018-05-12T06:50:54.841Z,11.90
2018-05-12T06:53:22.293Z,11.30
2018-05-12T06:55:49.756Z,11.67
2018-05-12T06:58:17.214Z,11.03
2018-05-12T07:00:44.670Z,11.03
2018-05-12T07:03:12.121Z,10.40
2018-05-12T07:05:39.594Z,11.00
2018-05-12T07:08:07.043Z,10.73
2018-05-12T07:10:34.521Z,10.53
2018-05-12T07:13:01.965Z,11.47
2018-05-12T07:15:29.405Z,9.77
2018-05-12T07:17:56.868Z,11.47
2018-05-12T07:20:24.309Z,10.03
2018-05-12T07:22:52.513Z,11.27
2018-05-12T07:25:19.989Z,10.30
2018-05-12T07:27:47.449Z,10.73
2018-05-12T07:30:14.905Z,11.43
2018-05-12T07:32:42.349Z,11.00
2018-05-12T07:35:09.801Z,10.83
2018-05-12T07:37:37.241Z,10.60
2018-05-12T07:40:04.705Z,11.87
2018-05-12T07:42:32.145Z,12.00
2018-05-12T07:44:59.613Z,10.83
2018-05-12T07:47:27.065Z,10.30
2018-05-12T07:49:54.536Z,8.77
2018-05-12T07:52:21.973Z,9.87
2018-05-12T07:54:49.420Z,9.17
2018-05-12T07:57:17.617Z,8.77
2018-05-12T07:59:45.077Z,9.80
2018-05-12T08:02:12.534Z,8.80
2018-05-12T08:04:39.992Z,8.63
2018-05-12T08:07:07.461Z,8.20
2018-05-12T08:09:34.902Z,8.10
2018-05-12T08:12:02.357Z,8.10
2018-05-12T08:14:29.797Z,7.53
2018-05-12T08:16:57.267Z,7.60
2018-05-12T08:19:24.710Z,6.67
2018-05-12T08:21:52.151Z,6.77
2018-05-12T08:24:19.613Z,6.60
2018-05-12T08:26:47.886Z,6.00
2018-05-12T08:29:15.291Z,6.00
2018-05-12T08:31:42.737Z,5.93
2018-05-12T08:34:10.271Z,6.13
2018-05-12T08:36:37.642Z,5.40
2018-05-12T08:39:05.109Z,5.37
2018-05-12T08:41:32.543Z,5.70
2018-05-12T08:44:00.000Z,5.67
2018-05-12T08:46:27.447Z,5.70
2018-05-12T08:48:54.903Z,4.80
2018-05-12T08:51:23.099Z,5.10
2018-05-12T08:53:50.570Z,4.93
2018-05-12T08:56:18.019Z,5.57
2018-05-12T08:58:45.676Z,5.43
2018-05-12T09:01:13.128Z,5.83
2018-05-12T09:03:40.841Z,5.13
2018-05-12T09:06:09.089Z,6.03
2018-05-12T09:08:36.557Z,6.10
2018-05-12T09:11:04.015Z,6.47
2018-05-12T09:13:31.486Z,5.83
2018-05-12T09:15:59.016Z,6.00
2018-05-12T09:18:26.465Z,5.50
2018-05-12T09:20:54.036Z,6.27
2018-05-12T09:23:21.697Z,6.07
2018-05-12T09:25:49.145Z,5.83
2018-05-12T09:28:16.592Z,5.07
2018-05-12T09:30:44.273Z,5.47
2018-05-12T09:33:11.829Z,5.63
2018-05-12T09:35:39.275Z,5.80
2018-05-12T09:38:06.724Z,5.57
2018-05-12T09:40:34.181Z,5.27
2018-05-12T09:43:01.761Z,5.27
2018-05-12T09:45:29.421Z,5.10
2018-05-12T09:47:56.897Z,5.20
2018-05-12T09:50:24.357Z,5.87
2018-05-12T09:52:51.805Z,5.20
2018-05-12T09:55:19.269Z,4.80
2018-05-12T09:57:46.719Z,4.90
2018-05-12T10:00:16.661Z,5.30
2018-05-12T10:02:44.875Z,4.30
2018-05-12T10:05:12.438Z,4.20
2018-05-12T10:07:39.926Z,3.80
2018-05-12T10:10:07.456Z,4.17
2018-05-12T10:12:34.884Z,4.40
2018-05-12T10:15:03.121Z,4.10
2018-05-12T10:17:31.336Z,9.63
2018-05-12T10:19:58.814Z,5.60
2018-05-12T10:22:26.296Z,5.57
2018-05-12T10:24:53.741Z,3.47
2018-05-12T10:27:21.221Z,4.23
2018-05-12T10:29:48.680Z,4.13
2018-05-12T10:32:16.153Z,4.27
2018-05-12T10:34:43.593Z,3.90
2018-05-12T10:37:11.063Z,6.93
2018-05-12T10:39:38.508Z,4.03
2018-05-12T10:42:05.977Z,4.03
2018-05-12T10:44:33.436Z,4.30
2018-05-12T10:47:00.878Z,7.70
2018-05-12T10:49:28.357Z,4.33
2018-05-12T10:51:55.810Z,4.33
2018-05-12T10:54:23.281Z,4.30
2018-05-12T10:56:50.734Z,4.20
2018-05-12T10:59:18.167Z,3.93
2018-05-12T11:01:45.659Z,4.20
2018-05-12T11:04:13.865Z,4.10
2018-05-12T11:06:41.321Z,4.33
2018-05-12T11:09:08.779Z,4.33
2018-05-12T11:11:36.249Z,4.57
2018-05-12T11:14:03.680Z,3.73
2018-05-12T11:16:31.154Z,3.90
2018-05-12T11:18:58.593Z,3.97
2018-05-12T11:21:26.092Z,4.47
2018-05-12T11:23:53.559Z,3.63
2018-05-12T11:26:21.012Z,3.70
2018-05-12T11:28:48.526Z,3.87
2018-05-12T11:31:15.907Z,4.47
2018-05-12T11:33:43.373Z,4.83
2018-05-12T11:36:11.225Z,12.23
2018-05-12T11:38:39.684Z,4.07
2018-05-12T11:41:07.055Z,3.73
2018-05-12T11:43:34.543Z,4.33
2018-05-12T11:46:02.017Z,4.20
2018-05-12T11:48:29.486Z,3.80
2018-05-12T11:50:56.933Z,4.33
2018-05-12T11:53:24.375Z,3.67
2018-05-12T11:55:51.832Z,3.80
2018-05-12T11:58:19.335Z,3.60
2018-05-12T12:00:46.738Z,3.80
2018-05-12T12:03:14.171Z,3.07
2018-05-12T12:05:41.624Z,3.30
2018-05-12T12:08:09.073Z,4.83
2018-05-12T12:10:36.542Z,3.43
2018-05-12T12:13:03.980Z,3.00
2018-05-12T12:15:31.416Z,3.23
2018-05-12T12:17:58.873Z,3.60
2018-05-12T12:20:26.317Z,3.17
2018-05-12T12:22:53.777Z,3.50
2018-05-12T12:25:21.972Z,3.60
2018-05-12T12:27:49.429Z,3.53
2018-05-12T12:30:16.852Z,3.50
2018-05-12T12:32:44.326Z,3.00
2018-05-12T12:35:12.551Z,3.53
2018-05-12T12:37:40.011Z,3.10
2018-05-12T12:40:07.461Z,3.17
2018-05-12T12:42:34.922Z,3.40
2018-05-12T12:45:02.408Z,3.23
2018-05-12T12:47:29.866Z,3.43
2018-05-12T12:49:57.322Z,2.80
2018-05-12T12:52:24.764Z,3.00
2018-05-12T12:54:52.221Z,3.13
2018-05-12T12:57:19.677Z,3.00
2018-05-12T12:59:47.139Z,2.90
2018-05-12T13:02:14.584Z,3.00
2018-05-12T13:04:42.046Z,3.30
2018-05-12T13:07:09.496Z,3.77
2018-05-12T13:09:36.937Z,4.72
2018-05-12T13:12:04.420Z,3.10
2018-05-12T13:14:31.880Z,3.17
2018-05-12T13:16:59.333Z,3.15
2018-05-12T13:19:26.782Z,3.12
2018-05-12T13:21:54.249Z,3.70
2018-05-12T13:24:21.785Z,3.30
2018-05-12T13:26:49.750Z,3.10
2018-05-12T13:29:17.176Z,3.50
2018-05-12T13:31:45.408Z,3.53
2018-05-12T13:34:12.839Z,5.80
2018-05-12T13:36:40.298Z,3.30
2018-05-12T13:39:07.738Z,3.25
2018-05-12T13:41:35.196Z,3.33
2018-05-12T13:44:02.633Z,3.35
2018-05-12T13:46:30.881Z,2.97
2018-05-12T13:48:58.347Z,2.70
2018-05-12T13:51:25.785Z,3.03
2018-05-12T13:53:53.263Z,3.08
2018-05-12T13:56:21.202Z,2.97
2018-05-12T13:58:48.670Z,2.90
2018-05-12T14:01:16.117Z,2.90
2018-05-12T14:04:43.072Z,2.90
2018-05-12T14:07:10.512Z,2.85
2018-05-12T14:09:37.988Z,3.30
2018-05-12T14:12:05.425Z,2.65
2018-05-12T14:14:32.885Z,3.17
2018-05-12T14:17:00.358Z,8.75
2018-05-12T14:19:27.822Z,2.67
2018-05-12T14:21:55.304Z,2.87
2018-05-12T14:24:23.527Z,2.65
2018-05-12T14:26:51.005Z,2.60
2018-05-12T14:29:18.462Z,2.80
2018-05-12T14:31:45.899Z,2.50
2018-05-12T14:34:13.361Z,2.60
2018-05-12T14:36:40.840Z,2.90
2018-05-12T14:39:08.302Z,2.55
2018-05-12T14:41:35.748Z,2.95
2018-05-12T14:44:04.099Z,3.70
2018-05-12T14:46:31.535Z,2.83
2018-05-12T14:48:59.738Z,3.62
2018-05-12T14:51:27.215Z,5.20
2018-05-12T14:53:54.654Z,3.37
2018-05-12T14:56:22.133Z,3.30
2018-05-12T14:58:49.565Z,2.93
2018-05-12T15:01:17.024Z,3.03
2018-05-12T15:03:44.480Z,3.40
2018-05-12T15:06:12.119Z,3.30
2018-05-12T15:08:39.573Z,3.50
2018-05-12T15:11:07.036Z,3.90
2018-05-12T15:13:34.511Z,3.07
2018-05-12T15:16:01.982Z,2.90
2018-05-12T15:18:29.440Z,3.00
2018-05-12T15:20:56.889Z,2.87
2018-05-12T15:23:24.332Z,2.97
2018-05-12T15:25:51.799Z,2.87
2018-05-12T15:28:19.233Z,3.37
2018-05-12T15:30:46.717Z,3.60
2018-05-12T15:33:14.171Z,3.10
2018-05-12T15:35:41.630Z,3.30
2018-05-12T15:38:09.089Z,3.60
2018-05-12T15:40:36.569Z,3.60
2018-05-12T15:43:04.004Z,3.33
2018-05-12T15:45:32.256Z,3.00
2018-05-12T15:47:59.707Z,3.10
2018-05-12T15:50:27.137Z,2.90
2018-05-12T15:52:54.588Z,2.97
2018-05-12T15:55:22.049Z,2.90
2018-05-12T15:57:49.533Z,3.23
2018-05-12T16:00:17.750Z,3.37
2018-05-12T16:02:45.230Z,5.87
2018-05-12T16:05:12.697Z,5.73
2018-05-12T16:07:40.284Z,7.43
2018-05-12T16:10:07.676Z,6.73
2018-05-12T16:12:35.124Z,7.83
2018-05-12T16:15:02.579Z,5.80
2018-05-12T16:17:30.068Z,6.67
2018-05-12T16:19:57.524Z,9.10
2018-05-12T16:22:24.986Z,9.23
2018-05-12T16:24:52.439Z,7.90
2018-05-12T16:27:19.891Z,8.80
2018-05-12T16:29:47.333Z,7.43
2018-05-12T16:32:14.794Z,8.00
2018-05-12T16:34:42.269Z,9.00
2018-05-12T16:37:09.729Z,8.10
2018-05-12T16:39:37.184Z,8.57
2018-05-12T16:42:04.636Z,8.83
2018-05-12T16:44:33.125Z,7.20
2018-05-12T16:47:00.556Z,9.93
2018-05-12T16:49:28.037Z,9.43
2018-05-12T16:51:55.488Z,10.00
2018-05-12T16:54:22.924Z,9.90
2018-05-12T16:56:50.394Z,10.13
2018-05-12T16:59:17.849Z,9.20
2018-05-12T17:01:45.312Z,9.63
2018-05-12T17:04:13.509Z,9.43
2018-05-12T17:06:40.965Z,9.13
2018-05-12T17:09:08.417Z,8.70
2018-05-12T17:11:35.876Z,8.57
2018-05-12T17:14:03.312Z,9.33
2018-05-12T17:16:30.797Z,8.10
2018-05-12T17:18:59.013Z,8.60
2018-05-12T17:21:26.453Z,9.50
2018-05-12T17:23:53.905Z,8.83
2018-05-12T17:26:21.381Z,8.27
2018-05-12T17:28:48.840Z,8.97
2018-05-12T17:31:16.277Z,9.87
2018-05-12T17:33:43.720Z,10.27
2018-05-12T17:36:12.657Z,8.10
2018-05-12T17:38:40.150Z,8.70
2018-05-12T17:41:07.608Z,8.73
2018-05-12T17:43:35.140Z,8.20
2018-05-12T17:46:02.600Z,7.17
2018-05-12T17:48:30.047Z,7.23
2018-05-12T17:50:57.708Z,7.97
2018-05-12T17:53:25.209Z,8.33
2018-05-12T17:55:52.656Z,8.40
2018-05-12T17:58:20.088Z,8.37
2018-05-12T18:00:47.658Z,9.40
2018-05-12T18:03:15.137Z,8.50
2018-05-12T18:05:42.649Z,9.00
2018-05-12T18:08:10.112Z,7.97
2018-05-12T18:10:37.773Z,7.67
2018-05-12T18:13:05.217Z,8.17
2018-05-12T18:15:32.795Z,9.03
2018-05-12T18:18:00.294Z,8.20
2018-05-12T18:20:28.504Z,7.77
2018-05-12T18:22:56.168Z,8.10
2018-05-12T18:25:23.621Z,8.07
2018-05-12T18:27:51.085Z,7.80
2018-05-12T18:30:18.556Z,8.80
2018-05-12T18:32:46.005Z,9.13
2018-05-12T18:35:13.449Z,7.50
2018-05-12T18:37:40.948Z,8.20
2018-05-12T18:40:08.385Z,8.67
2018-05-12T18:42:35.849Z,8.77
2018-05-12T18:45:04.061Z,9.73
2018-05-12T18:47:32.287Z,9.63
2018-05-12T18:49:59.746Z,9.50
2018-05-12T18:52:27.197Z,9.47
2018-05-12T18:54:54.656Z,8.30
2018-05-12T18:57:22.105Z,8.73
2018-05-12T18:59:49.570Z,8.57
2018-05-12T19:02:17.017Z,9.17
2018-05-12T19:04:44.505Z,8.93
2018-05-12T19:07:11.957Z,8.33
2018-05-12T19:09:39.437Z,8.13
2018-05-12T19:12:07.665Z,8.30
2018-05-12T19:14:35.122Z,8.70
2018-05-12T19:17:02.623Z,9.00
2018-05-12T19:19:30.049Z,8.30
2018-05-12T19:21:57.490Z,8.10
2018-05-12T19:24:24.956Z,7.57
2018-05-12T19:26:52.407Z,7.57
2018-05-12T19:29:19.853Z,8.10
2018-05-12T19:31:47.324Z,8.13
2018-05-12T19:34:14.802Z,7.80
2018-05-12T19:36:42.253Z,9.00
2018-05-12T19:39:09.708Z,9.27
2018-05-12T19:41:37.166Z,7.97
2018-05-12T19:44:04.621Z,8.87
2018-05-12T19:46:32.070Z,9.37
2018-05-12T19:48:59.525Z,9.70
2018-05-12T19:51:26.994Z,9.73
2018-05-12T19:53:54.441Z,10.20
2018-05-12T19:56:21.913Z,10.30
2018-05-12T19:58:49.366Z,11.63
2018-05-12T20:01:16.844Z,9.90
2018-05-12T20:03:44.309Z,9.40
2018-05-12T20:06:12.240Z,9.67
2018-05-12T20:08:39.712Z,10.83
2018-05-12T20:11:07.177Z,10.70
2018-05-12T20:13:34.620Z,10.87
2018-05-12T20:16:02.123Z,10.70
2018-05-12T20:18:29.548Z,11.50
2018-05-12T20:20:57.040Z,11.50
2018-05-12T20:23:25.264Z,12.33
2018-05-12T20:25:52.724Z,13.07
2018-05-12T20:28:20.185Z,12.73
2018-05-12T20:30:47.631Z,12.53
2018-05-12T20:33:15.089Z,12.17
2018-05-12T20:35:42.556Z,12.80
2018-05-12T20:38:10.013Z,11.90
2018-05-12T20:40:37.461Z,10.93
2018-05-12T20:43:04.920Z,11.60
2018-05-12T20:45:32.360Z,13.33
2018-05-12T20:48:00.582Z,12.83
2018-05-12T20:50:28.789Z,13.10
2018-05-12T20:52:56.361Z,14.00
2018-05-12T20:55:23.845Z,13.87
2018-05-12T20:57:51.301Z,13.57
2018-05-12T21:00:18.759Z,14.60
2018-05-12T21:02:46.249Z,13.40
2018-05-12T21:05:13.711Z,13.37
2018-05-12T21:07:41.917Z,14.03
2018-05-12T21:10:09.381Z,13.40
2018-05-12T21:12:36.829Z,14.20
2018-05-12T21:15:04.293Z,13.70
2018-05-12T21:17:31.753Z,13.27
2018-05-12T21:19:59.199Z,15.60
2018-05-12T21:22:26.657Z,15.17
2018-05-12T21:24:54.135Z,14.07
2018-05-12T21:27:21.608Z,15.97
2018-05-12T21:29:49.049Z,14.10
2018-05-12T21:32:16.523Z,14.77
2018-05-12T21:34:43.987Z,15.43
2018-05-12T21:37:11.438Z,14.47
2018-05-12T21:39:40.818Z,15.13
2018-05-12T21:42:08.301Z,16.00
2018-05-12T21:44:36.760Z,16.10
2018-05-12T21:47:04.198Z,16.00
2018-05-12T21:49:31.681Z,15.63
2018-05-12T21:51:59.124Z,17.80
2018-05-12T21:54:26.570Z,17.30
2018-05-12T21:56:54.033Z,16.40
2018-05-12T21:59:21.485Z,17.40
2018-05-12T22:01:48.953Z,18.43
2018-05-12T22:04:16.415Z,17.40
2018-05-12T22:06:43.893Z,17.57
2018-05-12T22:09:11.337Z,17.27
2018-05-12T22:11:38.813Z,17.87
2018-05-12T22:14:06.262Z,16.60
2018-05-12T22:16:33.720Z,17.73
2018-05-12T22:19:01.164Z,16.13
2018-05-12T22:21:28.621Z,16.90
2018-05-12T22:23:56.069Z,17.40
2018-05-12T22:26:23.538Z,16.57
2018-05-12T22:28:50.987Z,17.33
2018-05-12T22:31:18.433Z,16.80
2018-05-12T22:33:45.903Z,16.87
2018-05-12T22:36:13.364Z,17.77
2018-05-12T22:38:40.924Z,16.93
2018-05-12T22:41:08.377Z,17.47
2018-05-12T22:43:35.821Z,17.30
2018-05-12T22:46:03.288Z,17.57
2018-05-12T22:48:30.821Z,17.43
2018-05-12T22:50:58.293Z,19.53
2018-05-12T22:53:25.746Z,18.60
2018-05-12T22:55:53.255Z,18.97
2018-05-12T22:58:20.852Z,19.67
2018-05-12T23:00:48.273Z,18.40
2018-05-12T23:03:15.733Z,19.70
2018-05-12T23:05:43.944Z,19.57
2018-05-12T23:08:11.420Z,19.67
2018-05-12T23:10:38.878Z,20.20
2018-05-12T23:13:06.353Z,19.30
2018-05-12T23:15:33.803Z,21.90
2018-05-12T23:18:01.251Z,20.33
2018-05-12T23:20:28.725Z,19.93
2018-05-12T23:22:56.213Z,22.27
2018-05-12T23:25:23.694Z,21.83
2018-05-12T23:27:51.155Z,23.07
2018-05-12T23:30:18.596Z,23.43
2018-05-12T23:32:46.065Z,22.10
2018-05-12T23:35:13.520Z,21.60
2018-05-12T23:37:40.978Z,22.13
2018-05-12T23:40:08.537Z,23.10
2018-05-12T23:42:35.976Z,22.13
2018-05-12T23:45:03.457Z,21.37
2018-05-12T23:47:30.919Z,23.53
2018-05-12T23:49:58.369Z,26.67
2018-05-12T23:52:25.829Z,22.80
2018-05-12T23:54:53.280Z,26.13
2018-05-12T23:57:20.728Z,25.00
2018-05-12T23:59:48.291Z,23.93
